<?xml version="1.0" encoding="utf-8"?>
<gpx xmlns:xsi="http://www.w3.org/2001/XMLSchema-instance" xmlns:xsd="http://www.w3.org/2001/XMLSchema" version="1.1" creator="Shapelink.com" xmlns="http://www.topografix.com/GPX/1/1" xmlns:gpxtpx="http://www.garmin.com/xmlschemas/TrackPointExtension/v1">
  <metadata>
    <name>Övrigt 2.45 km, 2020-02-09</name>
    <desc></desc>
    <author><name>Marian Moron</name></author> 
    <time>2020-02-09T10:30:17Z</time>
  </metadata>
  <trk>
    <name>Övrigt 2.45 km, 2020-02-09</name>
    <trkseg>
      <trkpt lat="51.210797619055" lon="4.406200628579">
        <ele>18.2</ele>
        <time>2020-02-09T10:30:17Z</time>
      </trkpt>
      <trkpt lat="51.211264323247" lon="4.406375642651">
        <ele>0</ele>
        <time>2020-02-09T10:30:33Z</time>
      </trkpt>
      <trkpt lat="51.210963664494" lon="4.407171504056">
        <ele>0</ele>
        <time>2020-02-09T10:30:48Z</time>
      </trkpt>
      <trkpt lat="51.210579773474" lon="4.407598478042">
        <ele>0</ele>
        <time>2020-02-09T10:31:31Z</time>
      </trkpt>
      <trkpt lat="51.210699634644" lon="4.407564698985">
        <ele>0</ele>
        <time>2020-02-09T10:31:45Z</time>
      </trkpt>
      <trkpt lat="51.211148904484" lon="4.407494458663">
        <ele>0</ele>
        <time>2020-02-09T10:32:19Z</time>
      </trkpt>
      <trkpt lat="51.211002388872" lon="4.407749938975">
        <ele>0</ele>
        <time>2020-02-09T10:32:27Z</time>
      </trkpt>
      <trkpt lat="51.210968861272" lon="4.407809282827">
        <ele>0</ele>
        <time>2020-02-09T10:32:29Z</time>
      </trkpt>
      <trkpt lat="51.210968693634" lon="4.408187557974">
        <ele>0</ele>
        <time>2020-02-09T10:34:50Z</time>
      </trkpt>
      <trkpt lat="51.211078664162" lon="4.408075240514">
        <ele>0</ele>
        <time>2020-02-09T10:34:52Z</time>
      </trkpt>
      <trkpt lat="51.211261892496" lon="4.407910619998">
        <ele>0</ele>
        <time>2020-02-09T10:34:59Z</time>
      </trkpt>
      <trkpt lat="51.21146020825" lon="4.407885055203">
        <ele>0</ele>
        <time>2020-02-09T10:35:26Z</time>
      </trkpt>
      <trkpt lat="51.211879135612" lon="4.40755170704">
        <ele>0</ele>
        <time>2020-02-09T10:35:41Z</time>
      </trkpt>
      <trkpt lat="51.212294961671" lon="4.407230428813">
        <ele>0</ele>
        <time>2020-02-09T10:35:56Z</time>
      </trkpt>
      <trkpt lat="51.212608193274" lon="4.40716697783">
        <ele>0</ele>
        <time>2020-02-09T10:36:30Z</time>
      </trkpt>
      <trkpt lat="51.212952102631" lon="4.407231686098">
        <ele>2.4</ele>
        <time>2020-02-09T10:37:00Z</time>
      </trkpt>
      <trkpt lat="51.213048913576" lon="4.407259011092">
        <ele>2.6</ele>
        <time>2020-02-09T10:37:13Z</time>
      </trkpt>
      <trkpt lat="51.213089817248" lon="4.407246941156">
        <ele>5</ele>
        <time>2020-02-09T10:37:16Z</time>
      </trkpt>
      <trkpt lat="51.213415537882" lon="4.407289521208">
        <ele>16</ele>
        <time>2020-02-09T10:37:39Z</time>
      </trkpt>
      <trkpt lat="51.213500865624" lon="4.407275355797">
        <ele>16.2</ele>
        <time>2020-02-09T10:37:47Z</time>
      </trkpt>
      <trkpt lat="51.213532800663" lon="4.407272254494">
        <ele>17.6</ele>
        <time>2020-02-09T10:37:50Z</time>
      </trkpt>
      <trkpt lat="51.213828430276" lon="4.407178796309">
        <ele>37.2</ele>
        <time>2020-02-09T10:38:05Z</time>
      </trkpt>
      <trkpt lat="51.213877045296" lon="4.407823112962">
        <ele>2</ele>
        <time>2020-02-09T10:38:32Z</time>
      </trkpt>
      <trkpt lat="51.21385743165" lon="4.407891760723">
        <ele>0</ele>
        <time>2020-02-09T10:38:43Z</time>
      </trkpt>
      <trkpt lat="51.213827759724" lon="4.408106840277">
        <ele>0</ele>
        <time>2020-02-09T10:38:53Z</time>
      </trkpt>
      <trkpt lat="51.213893725277" lon="4.408826258754">
        <ele>0</ele>
        <time>2020-02-09T10:39:23Z</time>
      </trkpt>
      <trkpt lat="51.213981819046" lon="4.409026669983">
        <ele>0</ele>
        <time>2020-02-09T10:39:33Z</time>
      </trkpt>
      <trkpt lat="51.214283567446" lon="4.409130186448">
        <ele>0</ele>
        <time>2020-02-09T10:39:57Z</time>
      </trkpt>
      <trkpt lat="51.214508453823" lon="4.409132952475">
        <ele>0</ele>
        <time>2020-02-09T10:40:18Z</time>
      </trkpt>
      <trkpt lat="51.214566288933" lon="4.409105292205">
        <ele>0</ele>
        <time>2020-02-09T10:40:23Z</time>
      </trkpt>
      <trkpt lat="51.214624459319" lon="4.409273768395">
        <ele>0</ele>
        <time>2020-02-09T10:40:40Z</time>
      </trkpt>
      <trkpt lat="51.214597385782" lon="4.409325065623">
        <ele>0</ele>
        <time>2020-02-09T10:40:51Z</time>
      </trkpt>
      <trkpt lat="51.214555727739" lon="4.409333447523">
        <ele>0</ele>
        <time>2020-02-09T10:40:55Z</time>
      </trkpt>
      <trkpt lat="51.214511387488" lon="4.409337638473">
        <ele>0</ele>
        <time>2020-02-09T10:40:59Z</time>
      </trkpt>
      <trkpt lat="51.214548184029" lon="4.409295477516">
        <ele>0</ele>
        <time>2020-02-09T10:41:30Z</time>
      </trkpt>
      <trkpt lat="51.214604929492" lon="4.4092062941">
        <ele>0</ele>
        <time>2020-02-09T10:41:40Z</time>
      </trkpt>
      <trkpt lat="51.214664189525" lon="4.409108896422">
        <ele>0</ele>
        <time>2020-02-09T10:41:49Z</time>
      </trkpt>
      <trkpt lat="51.214710373794" lon="4.409057431556">
        <ele>0</ele>
        <time>2020-02-09T10:41:59Z</time>
      </trkpt>
      <trkpt lat="51.214685731008" lon="4.40916187003">
        <ele>0</ele>
        <time>2020-02-09T10:42:14Z</time>
      </trkpt>
      <trkpt lat="51.214604175121" lon="4.409212748163">
        <ele>0</ele>
        <time>2020-02-09T10:42:49Z</time>
      </trkpt>
      <trkpt lat="51.214626554794" lon="4.409212077611">
        <ele>0</ele>
        <time>2020-02-09T10:42:51Z</time>
      </trkpt>
      <trkpt lat="51.214714983839" lon="4.409507371948">
        <ele>13.8</ele>
        <time>2020-02-09T10:43:34Z</time>
      </trkpt>
      <trkpt lat="51.214765778153" lon="4.409477951479">
        <ele>13.8</ele>
        <time>2020-02-09T10:43:40Z</time>
      </trkpt>
      <trkpt lat="51.215213287794" lon="4.409399245438">
        <ele>2.6</ele>
        <time>2020-02-09T10:44:13Z</time>
      </trkpt>
      <trkpt lat="51.215147489879" lon="4.409628993317">
        <ele>8.2</ele>
        <time>2020-02-09T10:44:38Z</time>
      </trkpt>
      <trkpt lat="51.214715319115" lon="4.409904254913">
        <ele>12.2</ele>
        <time>2020-02-09T10:45:01Z</time>
      </trkpt>
      <trkpt lat="51.214609120442" lon="4.409997294003">
        <ele>16.2</ele>
        <time>2020-02-09T10:45:08Z</time>
      </trkpt>
      <trkpt lat="51.214625297509" lon="4.410044819376">
        <ele>21.4</ele>
        <time>2020-02-09T10:45:13Z</time>
      </trkpt>
      <trkpt lat="51.215056630083" lon="4.409943649843">
        <ele>24</ele>
        <time>2020-02-09T10:45:46Z</time>
      </trkpt>
      <trkpt lat="51.215101640886" lon="4.409935016486">
        <ele>26.2</ele>
        <time>2020-02-09T10:45:51Z</time>
      </trkpt>
      <trkpt lat="51.215169953371" lon="4.409941219092">
        <ele>27.6</ele>
        <time>2020-02-09T10:46:00Z</time>
      </trkpt>
      <trkpt lat="51.215150423544" lon="4.40994641587">
        <ele>27.2</ele>
        <time>2020-02-09T10:46:03Z</time>
      </trkpt>
      <trkpt lat="51.215112704994" lon="4.409963431127">
        <ele>29.6</ele>
        <time>2020-02-09T10:46:09Z</time>
      </trkpt>
      <trkpt lat="51.214838365407" lon="4.410063008099">
        <ele>0</ele>
        <time>2020-02-09T10:46:41Z</time>
      </trkpt>
      <trkpt lat="51.214825122005" lon="4.409983212411">
        <ele>0</ele>
        <time>2020-02-09T10:46:45Z</time>
      </trkpt>
      <trkpt lat="51.214800563038" lon="4.409940045626">
        <ele>0</ele>
        <time>2020-02-09T10:46:48Z</time>
      </trkpt>
      <trkpt lat="51.214627057708" lon="4.409347277658">
        <ele>0</ele>
        <time>2020-02-09T10:47:24Z</time>
      </trkpt>
      <trkpt lat="51.214606438234" lon="4.40926832016">
        <ele>0</ele>
        <time>2020-02-09T10:47:29Z</time>
      </trkpt>
      <trkpt lat="51.214575425204" lon="4.409257256052">
        <ele>0</ele>
        <time>2020-02-09T10:47:32Z</time>
      </trkpt>
      <trkpt lat="51.214531755505" lon="4.409276115327">
        <ele>0</ele>
        <time>2020-02-09T10:47:41Z</time>
      </trkpt>
      <trkpt lat="51.214451959817" lon="4.409355072825">
        <ele>0</ele>
        <time>2020-02-09T10:47:51Z</time>
      </trkpt>
      <trkpt lat="51.214418935131" lon="4.409436041979">
        <ele>0</ele>
        <time>2020-02-09T10:48:04Z</time>
      </trkpt>
      <trkpt lat="51.214502754131" lon="4.409283910494">
        <ele>0</ele>
        <time>2020-02-09T10:48:19Z</time>
      </trkpt>
      <trkpt lat="51.214577101584" lon="4.409237977682">
        <ele>0</ele>
        <time>2020-02-09T10:48:29Z</time>
      </trkpt>
      <trkpt lat="51.214714145649" lon="4.409098586685">
        <ele>0</ele>
        <time>2020-02-09T10:48:44Z</time>
      </trkpt>
      <trkpt lat="51.214912964317" lon="4.408989035252">
        <ele>0.2</ele>
        <time>2020-02-09T10:49:08Z</time>
      </trkpt>
      <trkpt lat="51.214913215774" lon="4.40907888922">
        <ele>6.2</ele>
        <time>2020-02-09T10:49:27Z</time>
      </trkpt>
      <trkpt lat="51.2146495212" lon="4.409294806964">
        <ele>14.2</ele>
        <time>2020-02-09T10:49:51Z</time>
      </trkpt>
      <trkpt lat="51.214519685569" lon="4.40927921663">
        <ele>3.8</ele>
        <time>2020-02-09T10:50:07Z</time>
      </trkpt>
      <trkpt lat="51.214510633117" lon="4.409297824448">
        <ele>0</ele>
        <time>2020-02-09T10:50:36Z</time>
      </trkpt>
      <trkpt lat="51.214532342238" lon="4.40930520052">
        <ele>0</ele>
        <time>2020-02-09T10:50:38Z</time>
      </trkpt>
      <trkpt lat="51.214581208715" lon="4.409296064249">
        <ele>0</ele>
        <time>2020-02-09T10:50:44Z</time>
      </trkpt>
      <trkpt lat="51.214594619755" lon="4.409119457616">
        <ele>21.8</ele>
        <time>2020-02-09T10:53:13Z</time>
      </trkpt>
      <trkpt lat="51.214534772989" lon="4.409165809523">
        <ele>29.2</ele>
        <time>2020-02-09T10:53:31Z</time>
      </trkpt>
      <trkpt lat="51.214539466853" lon="4.409196571096">
        <ele>6.4</ele>
        <time>2020-02-09T10:54:08Z</time>
      </trkpt>
      <trkpt lat="51.214600570904" lon="4.409192128689">
        <ele>0</ele>
        <time>2020-02-09T10:56:29Z</time>
      </trkpt>
      <trkpt lat="51.214494875145" lon="4.409017785169">
        <ele>0</ele>
        <time>2020-02-09T10:56:53Z</time>
      </trkpt>
      <trkpt lat="51.214416839656" lon="4.409010828192">
        <ele>0</ele>
        <time>2020-02-09T10:57:23Z</time>
      </trkpt>
      <trkpt lat="51.214580538163" lon="4.4091727665">
        <ele>2.8</ele>
        <time>2020-02-09T10:57:55Z</time>
      </trkpt>
      <trkpt lat="51.214576347213" lon="4.409102190902">
        <ele>1.4</ele>
        <time>2020-02-09T10:58:31Z</time>
      </trkpt>
      <trkpt lat="51.214662010231" lon="4.409125073489">
        <ele>9.4</ele>
        <time>2020-02-09T10:58:56Z</time>
      </trkpt>
      <trkpt lat="51.214634266142" lon="4.409140747642">
        <ele>10.6</ele>
        <time>2020-02-09T10:58:59Z</time>
      </trkpt>
      <trkpt lat="51.214617921437" lon="4.408977049135">
        <ele>0</ele>
        <time>2020-02-09T11:00:20Z</time>
      </trkpt>
      <trkpt lat="51.214616412695" lon="4.409227751764">
        <ele>13.2</ele>
        <time>2020-02-09T11:02:24Z</time>
      </trkpt>
      <trkpt lat="51.214584812932" lon="4.409179807296">
        <ele>12.8</ele>
        <time>2020-02-09T11:02:46Z</time>
      </trkpt>
      <trkpt lat="51.214478278983" lon="4.409330681496">
        <ele>28.6</ele>
        <time>2020-02-09T11:05:51Z</time>
      </trkpt>
      <trkpt lat="51.214525385261" lon="4.409220962425">
        <ele>27.8</ele>
        <time>2020-02-09T11:06:07Z</time>
      </trkpt>
      <trkpt lat="51.214486577064" lon="4.409203276616">
        <ele>27</ele>
        <time>2020-02-09T11:06:14Z</time>
      </trkpt>
      <trkpt lat="51.214574754652" lon="4.409120211987">
        <ele>3.2</ele>
        <time>2020-02-09T11:06:33Z</time>
      </trkpt>
      <trkpt lat="51.214641390757" lon="4.409053911158">
        <ele>0</ele>
        <time>2020-02-09T11:06:40Z</time>
      </trkpt>
      <trkpt lat="51.214494288412" lon="4.409050809855">
        <ele>0</ele>
        <time>2020-02-09T11:08:24Z</time>
      </trkpt>
      <trkpt lat="51.214270491682" lon="4.409010828192">
        <ele>0</ele>
        <time>2020-02-09T11:08:45Z</time>
      </trkpt>
      <trkpt lat="51.214199580808" lon="4.40891795674">
        <ele>0</ele>
        <time>2020-02-09T11:08:54Z</time>
      </trkpt>
      <trkpt lat="51.214177871687" lon="4.408892643402">
        <ele>0</ele>
        <time>2020-02-09T11:08:58Z</time>
      </trkpt>
      <trkpt lat="51.214107379908" lon="4.408994399668">
        <ele>0</ele>
        <time>2020-02-09T11:09:25Z</time>
      </trkpt>
      <trkpt lat="51.213971760766" lon="4.408988616157">
        <ele>0</ele>
        <time>2020-02-09T11:09:39Z</time>
      </trkpt>
      <trkpt lat="51.214011490972" lon="4.40827255044">
        <ele>0</ele>
        <time>2020-02-09T11:10:12Z</time>
      </trkpt>
      <trkpt lat="51.213981064675" lon="4.408118491118">
        <ele>0.4</ele>
        <time>2020-02-09T11:10:24Z</time>
      </trkpt>
      <trkpt lat="51.213972347499" lon="4.408089908839">
        <ele>1.4</ele>
        <time>2020-02-09T11:10:26Z</time>
      </trkpt>
      <trkpt lat="51.21393370694" lon="4.407372502018">
        <ele>0</ele>
        <time>2020-02-09T11:10:57Z</time>
      </trkpt>
      <trkpt lat="51.213933455483" lon="4.407213245918">
        <ele>0</ele>
        <time>2020-02-09T11:11:04Z</time>
      </trkpt>
      <trkpt lat="51.213730194408" lon="4.407090618721">
        <ele>2</ele>
        <time>2020-02-09T11:11:35Z</time>
      </trkpt>
      <trkpt lat="51.213540009097" lon="4.407170246771">
        <ele>20</ele>
        <time>2020-02-09T11:11:56Z</time>
      </trkpt>
      <trkpt lat="51.213096941863" lon="4.407304105714">
        <ele>33.4</ele>
        <time>2020-02-09T11:12:29Z</time>
      </trkpt>
      <trkpt lat="51.21263618882" lon="4.407289185932">
        <ele>25.4</ele>
        <time>2020-02-09T11:13:00Z</time>
      </trkpt>
      <trkpt lat="51.212558320969" lon="4.40727761891">
        <ele>18.4</ele>
        <time>2020-02-09T11:13:06Z</time>
      </trkpt>
      <trkpt lat="51.212454804504" lon="4.407302429334">
        <ele>16.4</ele>
        <time>2020-02-09T11:13:17Z</time>
      </trkpt>
      <trkpt lat="51.212018694247" lon="4.407421452314">
        <ele>15</ele>
        <time>2020-02-09T11:13:56Z</time>
      </trkpt>
      <trkpt lat="51.211666905904" lon="4.407597639852">
        <ele>14.6</ele>
        <time>2020-02-09T11:14:25Z</time>
      </trkpt>
      <trkpt lat="51.211310507516" lon="4.407604345372">
        <ele>4</ele>
        <time>2020-02-09T11:14:50Z</time>
      </trkpt>
      <trkpt lat="51.211073467384" lon="4.407439473399">
        <ele>0</ele>
        <time>2020-02-09T11:15:33Z</time>
      </trkpt>
      <trkpt lat="51.210859142201" lon="4.407536787258">
        <ele>0</ele>
        <time>2020-02-09T11:15:48Z</time>
      </trkpt>
      <trkpt lat="51.210805162765" lon="4.407550282117">
        <ele>0</ele>
        <time>2020-02-09T11:15:58Z</time>
      </trkpt>
      <trkpt lat="51.210388917611" lon="4.407216598678">
        <ele>0</ele>
        <time>2020-02-09T11:17:13Z</time>
      </trkpt>
      <trkpt lat="51.210400400814" lon="4.406967991524">
        <ele>13.4</ele>
        <time>2020-02-09T11:17:24Z</time>
      </trkpt>
      <trkpt lat="51.210401406642" lon="4.406926920214">
        <ele>14.4</ele>
        <time>2020-02-09T11:17:26Z</time>
      </trkpt>
      <trkpt lat="51.209863959214" lon="4.406703877855">
        <ele>34</ele>
        <time>2020-02-09T11:18:33Z</time>
      </trkpt>
      <trkpt lat="51.209857253694" lon="4.406758946938">
        <ele>18.4</ele>
        <time>2020-02-09T11:21:10Z</time>
      </trkpt>
    </trkseg>
  </trk>
</gpx>